sensor_id;sensor_type;location;lat;lon;timestamp;temperature;humidity
71039;SHT30;58692;43.212;27.908;2023-03-11T00:02:02;15.69;77.10
71039;SHT30;58692;43.212;27.908;2023-03-11T00:04:28;15.62;76.68
71039;SHT30;58692;43.212;27.908;2023-03-11T00:06:54;15.64;76.67
71039;SHT30;58692;43.212;27.908;2023-03-11T00:09:19;15.59;76.98
71039;SHT30;58692;43.212;27.908;2023-03-11T00:11:45;15.67;76.58
71039;SHT30;58692;43.212;27.908;2023-03-11T00:14:10;15.73;76.74
71039;SHT30;58692;43.212;27.908;2023-03-11T00:16:36;15.79;76.34
71039;SHT30;58692;43.212;27.908;2023-03-11T00:19:01;15.84;76.07
71039;SHT30;58692;43.212;27.908;2023-03-11T00:21:27;15.80;76.65
71039;SHT30;58692;43.212;27.908;2023-03-11T00:23:52;15.86;76.67
71039;SHT30;58692;43.212;27.908;2023-03-11T00:26:18;15.87;77.01
71039;SHT30;58692;43.212;27.908;2023-03-11T00:28:43;15.89;77.01
71039;SHT30;58692;43.212;27.908;2023-03-11T00:31:11;15.97;76.62
71039;SHT30;58692;43.212;27.908;2023-03-11T00:33:38;16.03;76.60
71039;SHT30;58692;43.212;27.908;2023-03-11T00:36:04;15.96;76.88
71039;SHT30;58692;43.212;27.908;2023-03-11T00:38:31;16.07;76.56
71039;SHT30;58692;43.212;27.908;2023-03-11T00:40:56;16.00;76.86
71039;SHT30;58692;43.212;27.908;2023-03-11T00:43:22;16.07;76.77
71039;SHT30;58692;43.212;27.908;2023-03-11T00:45:47;16.08;76.66
71039;SHT30;58692;43.212;27.908;2023-03-11T00:48:13;16.11;76.56
71039;SHT30;58692;43.212;27.908;2023-03-11T00:50:39;16.18;76.30
71039;SHT30;58692;43.212;27.908;2023-03-11T00:53:05;16.21;76.21
71039;SHT30;58692;43.212;27.908;2023-03-11T00:55:33;16.13;76.47
71039;SHT30;58692;43.212;27.908;2023-03-11T00:58:02;16.18;76.44
71039;SHT30;58692;43.212;27.908;2023-03-11T01:00:29;16.11;76.58
71039;SHT30;58692;43.212;27.908;2023-03-11T01:02:55;16.08;76.78
71039;SHT30;58692;43.212;27.908;2023-03-11T01:05:24;16.11;76.51
71039;SHT30;58692;43.212;27.908;2023-03-11T01:07:51;16.07;76.48
71039;SHT30;58692;43.212;27.908;2023-03-11T01:10:16;16.00;76.56
71039;SHT30;58692;43.212;27.908;2023-03-11T01:12:42;16.04;76.28
71039;SHT30;58692;43.212;27.908;2023-03-11T01:15:14;15.97;76.42
71039;SHT30;58692;43.212;27.908;2023-03-11T01:17:41;15.96;76.37
71039;SHT30;58692;43.212;27.908;2023-03-11T01:20:07;15.74;77.16
71039;SHT30;58692;43.212;27.908;2023-03-11T01:22:34;15.77;77.19
71039;SHT30;58692;43.212;27.908;2023-03-11T01:25:00;15.80;77.46
71039;SHT30;58692;43.212;27.908;2023-03-11T01:27:25;15.59;77.00
71039;SHT30;58692;43.212;27.908;2023-03-11T01:29:51;15.39;77.63
71039;SHT30;58692;43.212;27.908;2023-03-11T01:32:16;15.36;77.58
71039;SHT30;58692;43.212;27.908;2023-03-11T01:34:42;15.23;77.77
71039;SHT30;58692;43.212;27.908;2023-03-11T01:37:07;14.95;77.78
71039;SHT30;58692;43.212;27.908;2023-03-11T01:39:33;14.60;78.60
71039;SHT30;58692;43.212;27.908;2023-03-11T01:41:59;14.58;78.70
71039;SHT30;58692;43.212;27.908;2023-03-11T01:44:24;14.68;78.52
71039;SHT30;58692;43.212;27.908;2023-03-11T01:49:17;14.77;78.07
71039;SHT30;58692;43.212;27.908;2023-03-11T01:51:45;14.85;77.93
71039;SHT30;58692;43.212;27.908;2023-03-11T01:54:17;14.89;77.77
71039;SHT30;58692;43.212;27.908;2023-03-11T01:56:47;14.91;77.82
71039;SHT30;58692;43.212;27.908;2023-03-11T01:59:15;14.92;78.13
71039;SHT30;58692;43.212;27.908;2023-03-11T02:01:51;14.74;79.21
71039;SHT30;58692;43.212;27.908;2023-03-11T02:04:18;14.87;79.84
71039;SHT30;58692;43.212;27.908;2023-03-11T02:06:44;15.06;80.66
71039;SHT30;58692;43.212;27.908;2023-03-11T02:09:09;15.21;80.32
71039;SHT30;58692;43.212;27.908;2023-03-11T02:11:35;15.36;80.19
71039;SHT30;58692;43.212;27.908;2023-03-11T02:14:03;15.52;79.76
71039;SHT30;58692;43.212;27.908;2023-03-11T02:16:30;15.60;79.44
71039;SHT30;58692;43.212;27.908;2023-03-11T02:18:59;15.66;79.33
71039;SHT30;58692;43.212;27.908;2023-03-11T02:21:27;15.64;79.38
71039;SHT30;58692;43.212;27.908;2023-03-11T02:24:03;15.66;78.61
71039;SHT30;58692;43.212;27.908;2023-03-11T02:26:57;15.32;78.34
71039;SHT30;58692;43.212;27.908;2023-03-11T02:29:26;15.25;79.48
71039;SHT30;58692;43.212;27.908;2023-03-11T02:31:54;15.06;79.36
71039;SHT30;58692;43.212;27.908;2023-03-11T02:34:24;14.96;79.77
71039;SHT30;58692;43.212;27.908;2023-03-11T02:36:50;14.95;79.77
71039;SHT30;58692;43.212;27.908;2023-03-11T02:39:16;15.08;79.26
71039;SHT30;58692;43.212;27.908;2023-03-11T02:41:44;15.08;79.07
71039;SHT30;58692;43.212;27.908;2023-03-11T02:44:12;14.98;79.14
71039;SHT30;58692;43.212;27.908;2023-03-11T02:46:40;14.99;79.09
71039;SHT30;58692;43.212;27.908;2023-03-11T02:49:07;14.70;79.52
71039;SHT30;58692;43.212;27.908;2023-03-11T02:51:33;14.41;80.43
71039;SHT30;58692;43.212;27.908;2023-03-11T02:54:02;14.33;80.93
71039;SHT30;58692;43.212;27.908;2023-03-11T02:56:28;14.12;81.69
71039;SHT30;58692;43.212;27.908;2023-03-11T02:58:54;13.97;82.18
71039;SHT30;58692;43.212;27.908;2023-03-11T03:01:20;14.00;82.04
71039;SHT30;58692;43.212;27.908;2023-03-11T03:03:45;13.93;82.54
71039;SHT30;58692;43.212;27.908;2023-03-11T03:06:11;14.02;82.18
71039;SHT30;58692;43.212;27.908;2023-03-11T03:08:36;13.99;82.51
71039;SHT30;58692;43.212;27.908;2023-03-11T03:11:02;14.02;82.41
71039;SHT30;58692;43.212;27.908;2023-03-11T03:13:28;14.03;82.16
71039;SHT30;58692;43.212;27.908;2023-03-11T03:15:55;13.97;82.18
71039;SHT30;58692;43.212;27.908;2023-03-11T03:18:21;13.95;82.31
71039;SHT30;58692;43.212;27.908;2023-03-11T03:20:46;13.97;82.08
71039;SHT30;58692;43.212;27.908;2023-03-11T03:23:13;13.95;82.20
71039;SHT30;58692;43.212;27.908;2023-03-11T03:25:43;13.80;82.64
71039;SHT30;58692;43.212;27.908;2023-03-11T03:28:10;13.73;82.87
71039;SHT30;58692;43.212;27.908;2023-03-11T03:30:36;13.90;82.53
71039;SHT30;58692;43.212;27.908;2023-03-11T03:33:02;13.85;82.57
71039;SHT30;58692;43.212;27.908;2023-03-11T03:35:27;13.91;82.38
71039;SHT30;58692;43.212;27.908;2023-03-11T03:37:53;14.00;82.06
71039;SHT30;58692;43.212;27.908;2023-03-11T03:40:19;13.97;82.25
71039;SHT30;58692;43.212;27.908;2023-03-11T03:42:45;13.91;82.20
71039;SHT30;58692;43.212;27.908;2023-03-11T03:45:11;13.77;82.70
71039;SHT30;58692;43.212;27.908;2023-03-11T03:47:36;13.66;83.29
71039;SHT30;58692;43.212;27.908;2023-03-11T03:50:04;13.65;83.42
71039;SHT30;58692;43.212;27.908;2023-03-11T03:52:30;13.76;83.19
71039;SHT30;58692;43.212;27.908;2023-03-11T03:54:56;13.91;82.47
71039;SHT30;58692;43.212;27.908;2023-03-11T03:57:21;13.76;82.97
71039;SHT30;58692;43.212;27.908;2023-03-11T03:59:47;13.54;83.50
71039;SHT30;58692;43.212;27.908;2023-03-11T04:02:12;13.49;83.66
71039;SHT30;58692;43.212;27.908;2023-03-11T04:04:38;13.54;83.78
71039;SHT30;58692;43.212;27.908;2023-03-11T04:07:04;13.61;83.41
71039;SHT30;58692;43.212;27.908;2023-03-11T04:09:31;13.55;83.68
71039;SHT30;58692;43.212;27.908;2023-03-11T04:11:56;13.62;83.97
71039;SHT30;58692;43.212;27.908;2023-03-11T04:14:22;13.67;83.71
71039;SHT30;58692;43.212;27.908;2023-03-11T04:16:47;13.61;84.01
71039;SHT30;58692;43.212;27.908;2023-03-11T04:19:13;13.55;83.91
71039;SHT30;58692;43.212;27.908;2023-03-11T04:21:38;13.63;83.62
71039;SHT30;58692;43.212;27.908;2023-03-11T04:24:04;13.58;83.71
71039;SHT30;58692;43.212;27.908;2023-03-11T04:26:30;13.54;83.45
71039;SHT30;58692;43.212;27.908;2023-03-11T04:28:55;13.54;83.34
71039;SHT30;58692;43.212;27.908;2023-03-11T04:31:21;13.39;83.95
71039;SHT30;58692;43.212;27.908;2023-03-11T04:33:46;13.34;83.94
71039;SHT30;58692;43.212;27.908;2023-03-11T04:36:12;13.35;83.92
71039;SHT30;58692;43.212;27.908;2023-03-11T04:38:38;13.42;83.81
71039;SHT30;58692;43.212;27.908;2023-03-11T04:41:04;13.63;83.28
71039;SHT30;58692;43.212;27.908;2023-03-11T04:43:31;13.69;82.92
71039;SHT30;58692;43.212;27.908;2023-03-11T04:45:57;13.63;83.18
71039;SHT30;58692;43.212;27.908;2023-03-11T04:48:22;13.70;83.32
71039;SHT30;58692;43.212;27.908;2023-03-11T04:50:49;13.87;82.85
71039;SHT30;58692;43.212;27.908;2023-03-11T04:53:15;13.91;82.79
71039;SHT30;58692;43.212;27.908;2023-03-11T04:55:40;14.00;82.69
71039;SHT30;58692;43.212;27.908;2023-03-11T04:58:06;14.14;82.88
71039;SHT30;58692;43.212;27.908;2023-03-11T05:00:31;14.24;82.54
71039;SHT30;58692;43.212;27.908;2023-03-11T05:02:57;14.28;83.23
71039;SHT30;58692;43.212;27.908;2023-03-11T05:05:22;14.36;83.61
71039;SHT30;58692;43.212;27.908;2023-03-11T05:07:49;14.42;84.42
71039;SHT30;58692;43.212;27.908;2023-03-11T05:10:15;14.47;84.01
71039;SHT30;58692;43.212;27.908;2023-03-11T05:12:47;14.45;82.94
71039;SHT30;58692;43.212;27.908;2023-03-11T05:15:12;14.40;83.43
71039;SHT30;58692;43.212;27.908;2023-03-11T05:17:38;14.52;82.66
71039;SHT30;58692;43.212;27.908;2023-03-11T05:20:04;14.40;82.82
71039;SHT30;58692;43.212;27.908;2023-03-11T05:22:32;14.50;82.90
71039;SHT30;58692;43.212;27.908;2023-03-11T05:24:58;14.74;82.90
71039;SHT30;58692;43.212;27.908;2023-03-11T05:27:23;14.68;82.77
71039;SHT30;58692;43.212;27.908;2023-03-11T05:29:48;14.57;82.43
71039;SHT30;58692;43.212;27.908;2023-03-11T05:32:14;14.50;83.10
71039;SHT30;58692;43.212;27.908;2023-03-11T05:34:40;14.41;83.04
71039;SHT30;58692;43.212;27.908;2023-03-11T05:37:05;14.45;83.66
71039;SHT30;58692;43.212;27.908;2023-03-11T05:39:32;14.51;83.86
71039;SHT30;58692;43.212;27.908;2023-03-11T05:41:57;14.63;84.07
71039;SHT30;58692;43.212;27.908;2023-03-11T05:44:23;14.57;83.98
71039;SHT30;58692;43.212;27.908;2023-03-11T05:46:48;14.60;84.72
71039;SHT30;58692;43.212;27.908;2023-03-11T05:49:14;14.65;83.95
71039;SHT30;58692;43.212;27.908;2023-03-11T05:51:39;14.52;84.70
71039;SHT30;58692;43.212;27.908;2023-03-11T05:54:05;14.63;84.21
71039;SHT30;58692;43.212;27.908;2023-03-11T05:56:40;14.58;84.88
71039;SHT30;58692;43.212;27.908;2023-03-11T05:59:06;14.64;84.43
71039;SHT30;58692;43.212;27.908;2023-03-11T06:01:32;14.72;84.63
71039;SHT30;58692;43.212;27.908;2023-03-11T06:03:59;14.82;84.91
71039;SHT30;58692;43.212;27.908;2023-03-11T06:06:25;14.93;84.27
71039;SHT30;58692;43.212;27.908;2023-03-11T06:08:50;14.98;84.42
71039;SHT30;58692;43.212;27.908;2023-03-11T06:11:16;15.02;84.58
71039;SHT30;58692;43.212;27.908;2023-03-11T06:13:42;15.03;84.08
71039;SHT30;58692;43.212;27.908;2023-03-11T06:16:08;15.12;83.78
71039;SHT30;58692;43.212;27.908;2023-03-11T06:18:34;15.13;83.62
71039;SHT30;58692;43.212;27.908;2023-03-11T06:21:01;15.16;83.61
71039;SHT30;58692;43.212;27.908;2023-03-11T06:23:28;15.32;83.55
71039;SHT30;58692;43.212;27.908;2023-03-11T06:25:57;15.39;83.00
71039;SHT30;58692;43.212;27.908;2023-03-11T06:28:23;15.38;83.43
71039;SHT30;58692;43.212;27.908;2023-03-11T06:30:49;15.44;82.65
71039;SHT30;58692;43.212;27.908;2023-03-11T06:33:14;15.50;82.46
71039;SHT30;58692;43.212;27.908;2023-03-11T06:35:40;15.64;82.37
71039;SHT30;58692;43.212;27.908;2023-03-11T06:38:06;15.80;81.50
71039;SHT30;58692;43.212;27.908;2023-03-11T06:40:31;15.93;80.23
71039;SHT30;58692;43.212;27.908;2023-03-11T06:42:57;16.13;79.71
71039;SHT30;58692;43.212;27.908;2023-03-11T06:45:23;16.58;77.73
71039;SHT30;58692;43.212;27.908;2023-03-11T06:47:49;16.47;78.37
71039;SHT30;58692;43.212;27.908;2023-03-11T06:50:14;16.51;77.90
71039;SHT30;58692;43.212;27.908;2023-03-11T06:52:40;16.35;78.17
71039;SHT30;58692;43.212;27.908;2023-03-11T06:55:06;16.38;77.89
71039;SHT30;58692;43.212;27.908;2023-03-11T06:57:32;16.34;78.06
71039;SHT30;58692;43.212;27.908;2023-03-11T06:59:58;16.47;77.57
71039;SHT30;58692;43.212;27.908;2023-03-11T07:02:23;16.49;77.61
71039;SHT30;58692;43.212;27.908;2023-03-11T07:04:49;16.49;77.48
71039;SHT30;58692;43.212;27.908;2023-03-11T07:07:15;16.41;77.69
71039;SHT30;58692;43.212;27.908;2023-03-11T07:09:40;16.44;77.25
71039;SHT30;58692;43.212;27.908;2023-03-11T07:12:06;16.65;76.66
71039;SHT30;58692;43.212;27.908;2023-03-11T07:14:32;16.72;75.83
71039;SHT30;58692;43.212;27.908;2023-03-11T07:16:57;16.69;75.97
71039;SHT30;58692;43.212;27.908;2023-03-11T07:19:23;16.62;75.88
71039;SHT30;58692;43.212;27.908;2023-03-11T07:21:48;16.64;75.60
71039;SHT30;58692;43.212;27.908;2023-03-11T07:24:14;16.78;75.38
71039;SHT30;58692;43.212;27.908;2023-03-11T07:26:40;17.10;74.40
71039;SHT30;58692;43.212;27.908;2023-03-11T07:29:06;17.39;73.35
71039;SHT30;58692;43.212;27.908;2023-03-11T07:31:33;18.18;70.93
71039;SHT30;58692;43.212;27.908;2023-03-11T07:34:02;18.29;70.56
71039;SHT30;58692;43.212;27.908;2023-03-11T07:36:28;18.36;70.04
71039;SHT30;58692;43.212;27.908;2023-03-11T07:38:56;19.81;66.07
71039;SHT30;58692;43.212;27.908;2023-03-11T07:41:26;20.29;64.39
71039;SHT30;58692;43.212;27.908;2023-03-11T07:43:54;19.77;65.49
71039;SHT30;58692;43.212;27.908;2023-03-11T07:46:20;19.69;65.83
71039;SHT30;58692;43.212;27.908;2023-03-11T07:48:47;19.02;66.44
71039;SHT30;58692;43.212;27.908;2023-03-11T07:51:16;18.74;67.42
71039;SHT30;58692;43.212;27.908;2023-03-11T07:53:42;18.69;67.55
71039;SHT30;58692;43.212;27.908;2023-03-11T07:56:10;18.31;68.23
71039;SHT30;58692;43.212;27.908;2023-03-11T07:58:36;18.16;68.01
71039;SHT30;58692;43.212;27.908;2023-03-11T08:01:07;18.31;67.81
71039;SHT30;58692;43.212;27.908;2023-03-11T08:03:33;18.39;67.91
71039;SHT30;58692;43.212;27.908;2023-03-11T08:05:59;18.76;66.82
71039;SHT30;58692;43.212;27.908;2023-03-11T08:08:25;18.56;66.76
71039;SHT30;58692;43.212;27.908;2023-03-11T08:10:50;18.35;66.86
71039;SHT30;58692;43.212;27.908;2023-03-11T08:13:16;18.38;66.57
71039;SHT30;58692;43.212;27.908;2023-03-11T08:15:42;18.51;66.11
71039;SHT30;58692;43.212;27.908;2023-03-11T08:18:08;18.57;65.95
71039;SHT30;58692;43.212;27.908;2023-03-11T08:20:33;18.57;65.77
71039;SHT30;58692;43.212;27.908;2023-03-11T08:22:59;19.57;63.26
71039;SHT30;58692;43.212;27.908;2023-03-11T08:25:24;19.50;63.33
71039;SHT30;58692;43.212;27.908;2023-03-11T08:27:50;21.81;57.78
71039;SHT30;58692;43.212;27.908;2023-03-11T08:30:16;22.29;56.16
71039;SHT30;58692;43.212;27.908;2023-03-11T08:32:41;21.25;57.83
71039;SHT30;58692;43.212;27.908;2023-03-11T08:35:09;20.13;61.13
71039;SHT30;58692;43.212;27.908;2023-03-11T08:37:35;20.36;60.80
71039;SHT30;58692;43.212;27.908;2023-03-11T08:40:01;20.85;59.53
71039;SHT30;58692;43.212;27.908;2023-03-11T08:42:26;21.65;56.66
71039;SHT30;58692;43.212;27.908;2023-03-11T08:44:52;20.98;58.64
71039;SHT30;58692;43.212;27.908;2023-03-11T08:47:17;20.51;59.93
71039;SHT30;58692;43.212;27.908;2023-03-11T08:49:43;19.93;61.52
71039;SHT30;58692;43.212;27.908;2023-03-11T08:52:08;20.13;61.17
71039;SHT30;58692;43.212;27.908;2023-03-11T08:54:34;19.92;61.87
71039;SHT30;58692;43.212;27.908;2023-03-11T08:56:59;19.57;62.14
71039;SHT30;58692;43.212;27.908;2023-03-11T08:59:28;19.32;62.38
71039;SHT30;58692;43.212;27.908;2023-03-11T09:01:53;19.08;62.63
71039;SHT30;58692;43.212;27.908;2023-03-11T09:04:19;18.89;62.98
71039;SHT30;58692;43.212;27.908;2023-03-11T09:06:45;18.66;63.45
71039;SHT30;58692;43.212;27.908;2023-03-11T09:09:14;18.59;63.58
71039;SHT30;58692;43.212;27.908;2023-03-11T09:11:41;18.42;67.11
71039;SHT30;58692;43.212;27.908;2023-03-11T09:14:07;17.97;71.35
71039;SHT30;58692;43.212;27.908;2023-03-11T09:16:33;17.53;70.97
71039;SHT30;58692;43.212;27.908;2023-03-11T09:18:59;17.17;72.55
71039;SHT30;58692;43.212;27.908;2023-03-11T09:21:28;16.58;75.72
71039;SHT30;58692;43.212;27.908;2023-03-11T09:23:54;16.45;76.50
71039;SHT30;58692;43.212;27.908;2023-03-11T09:26:20;16.37;79.63
71039;SHT30;58692;43.212;27.908;2023-03-11T09:28:46;16.27;78.08
71039;SHT30;58692;43.212;27.908;2023-03-11T09:31:14;16.05;79.39
71039;SHT30;58692;43.212;27.908;2023-03-11T09:33:41;15.94;78.54
71039;SHT30;58692;43.212;27.908;2023-03-11T09:36:07;15.89;80.32
71039;SHT30;58692;43.212;27.908;2023-03-11T09:38:35;15.80;79.64
71039;SHT30;58692;43.212;27.908;2023-03-11T09:52:29;15.79;82.99
71039;SHT30;58692;43.212;27.908;2023-03-11T09:54:58;15.84;84.09
71039;SHT30;58692;43.212;27.908;2023-03-11T09:57:29;15.87;82.98
71039;SHT30;58692;43.212;27.908;2023-03-11T09:59:57;15.96;82.73
71039;SHT30;58692;43.212;27.908;2023-03-11T10:02:24;16.21;81.56
71039;SHT30;58692;43.212;27.908;2023-03-11T10:05:07;16.82;80.06
71039;SHT30;58692;43.212;27.908;2023-03-11T10:07:39;17.19;79.19
71039;SHT30;58692;43.212;27.908;2023-03-11T10:10:11;18.02;77.36
71039;SHT30;58692;43.212;27.908;2023-03-11T10:12:53;18.13;75.79
71039;SHT30;58692;43.212;27.908;2023-03-11T10:15:29;17.75;77.29
71039;SHT30;58692;43.212;27.908;2023-03-11T10:18:00;17.74;78.95
71039;SHT30;58692;43.212;27.908;2023-03-11T10:20:34;17.37;78.25
71039;SHT30;58692;43.212;27.908;2023-03-11T10:23:25;17.00;78.35
71039;SHT30;58692;43.212;27.908;2023-03-11T10:28:35;17.33;77.13
71039;SHT30;58692;43.212;27.908;2023-03-11T10:31:12;17.44;75.36
71039;SHT30;58692;43.212;27.908;2023-03-11T10:33:51;17.23;78.67
71039;SHT30;58692;43.212;27.908;2023-03-11T10:36:23;17.22;79.36
71039;SHT30;58692;43.212;27.908;2023-03-11T10:38:52;16.96;80.08
71039;SHT30;58692;43.212;27.908;2023-03-11T10:46:41;16.59;77.79
71039;SHT30;58692;43.212;27.908;2023-03-11T10:49:12;16.92;78.23
71039;SHT30;58692;43.212;27.908;2023-03-11T10:51:38;16.89;77.53
71039;SHT30;58692;43.212;27.908;2023-03-11T10:54:06;17.16;76.88
71039;SHT30;58692;43.212;27.908;2023-03-11T10:56:35;17.91;74.52
71039;SHT30;58692;43.212;27.908;2023-03-11T10:59:03;18.31;71.87
71039;SHT30;58692;43.212;27.908;2023-03-11T11:01:29;18.04;72.90
71039;SHT30;58692;43.212;27.908;2023-03-11T11:03:57;18.96;70.29
71039;SHT30;58692;43.212;27.908;2023-03-11T11:14:49;20.90;64.39
71039;SHT30;58692;43.212;27.908;2023-03-11T11:17:19;20.95;63.16
71039;SHT30;58692;43.212;27.908;2023-03-11T11:19:47;20.04;65.75
71039;SHT30;58692;43.212;27.908;2023-03-11T11:22:16;19.72;64.65
71039;SHT30;58692;43.212;27.908;2023-03-11T11:24:44;19.28;68.22
71039;SHT30;58692;43.212;27.908;2023-03-11T11:27:15;18.55;67.99
71039;SHT30;58692;43.212;27.908;2023-03-11T11:29:41;18.22;68.64
71039;SHT30;58692;43.212;27.908;2023-03-11T11:32:18;18.29;68.46
71039;SHT30;58692;43.212;27.908;2023-03-11T11:35:01;18.29;67.91
71039;SHT30;58692;43.212;27.908;2023-03-11T11:37:31;18.29;68.31
71039;SHT30;58692;43.212;27.908;2023-03-11T11:40:02;18.21;67.62
71039;SHT30;58692;43.212;27.908;2023-03-11T11:42:34;18.13;67.53
71039;SHT30;58692;43.212;27.908;2023-03-11T11:45:09;18.16;67.10
71039;SHT30;58692;43.212;27.908;2023-03-11T11:47:40;18.08;67.72
71039;SHT30;58692;43.212;27.908;2023-03-11T11:50:15;17.97;68.46
71039;SHT30;58692;43.212;27.908;2023-03-11T11:52:46;18.05;67.61
71039;SHT30;58692;43.212;27.908;2023-03-11T11:55:29;18.05;66.73
71039;SHT30;58692;43.212;27.908;2023-03-11T11:57:55;17.53;67.55
71039;SHT30;58692;43.212;27.908;2023-03-11T12:00:27;17.51;69.32
71039;SHT30;58692;43.212;27.908;2023-03-11T12:05:57;17.55;69.28
71039;SHT30;58692;43.212;27.908;2023-03-11T12:11:28;17.40;69.26
71039;SHT30;58692;43.212;27.908;2023-03-11T12:19:23;16.99;70.01
71039;SHT30;58692;43.212;27.908;2023-03-11T12:22:13;16.89;69.95
71039;SHT30;58692;43.212;27.908;2023-03-11T12:29:51;16.99;69.68
71039;SHT30;58692;43.212;27.908;2023-03-11T12:32:32;16.76;68.92
71039;SHT30;58692;43.212;27.908;2023-03-11T12:35:08;16.73;70.10
71039;SHT30;58692;43.212;27.908;2023-03-11T12:37:35;16.75;71.06
71039;SHT30;58692;43.212;27.908;2023-03-11T12:43:01;16.89;70.55
71039;SHT30;58692;43.212;27.908;2023-03-11T12:45:50;16.72;70.50
71039;SHT30;58692;43.212;27.908;2023-03-11T12:51:04;16.72;70.28
71039;SHT30;58692;43.212;27.908;2023-03-11T12:53:46;16.85;69.83
71039;SHT30;58692;43.212;27.908;2023-03-11T12:56:23;16.89;70.95
71039;SHT30;58692;43.212;27.908;2023-03-11T12:59:10;16.93;70.14
71039;SHT30;58692;43.212;27.908;2023-03-11T13:01:57;16.95;70.38
71039;SHT30;58692;43.212;27.908;2023-03-11T13:09:59;17.09;70.69
71039;SHT30;58692;43.212;27.908;2023-03-11T13:12:49;17.05;70.68
71039;SHT30;58692;43.212;27.908;2023-03-11T13:15:35;17.09;70.38
71039;SHT30;58692;43.212;27.908;2023-03-11T13:18:21;17.10;70.75
71039;SHT30;58692;43.212;27.908;2023-03-11T13:20:50;17.20;71.02
71039;SHT30;58692;43.212;27.908;2023-03-11T13:28:41;17.24;70.50
71039;SHT30;58692;43.212;27.908;2023-03-11T13:31:30;17.12;70.78
71039;SHT30;58692;43.212;27.908;2023-03-11T13:34:12;16.98;71.32
71039;SHT30;58692;43.212;27.908;2023-03-11T13:39:41;16.92;71.66
71039;SHT30;58692;43.212;27.908;2023-03-11T13:42:31;16.85;72.18
71039;SHT30;58692;43.212;27.908;2023-03-11T13:44:58;16.88;73.51
71039;SHT30;58692;43.212;27.908;2023-03-11T13:47:26;16.76;73.62
71039;SHT30;58692;43.212;27.908;2023-03-11T13:50:03;16.72;74.40
71039;SHT30;58692;43.212;27.908;2023-03-11T13:52:32;16.68;74.27
71039;SHT30;58692;43.212;27.908;2023-03-11T13:55:02;16.61;74.78
71039;SHT30;58692;43.212;27.908;2023-03-11T13:57:32;16.55;73.63
71039;SHT30;58692;43.212;27.908;2023-03-11T14:00:05;16.44;73.53
71039;SHT30;58692;43.212;27.908;2023-03-11T14:02:52;16.40;73.79
71039;SHT30;58692;43.212;27.908;2023-03-11T14:05:24;16.51;73.62
71039;SHT30;58692;43.212;27.908;2023-03-11T14:07:51;16.58;73.51
71039;SHT30;58692;43.212;27.908;2023-03-11T14:10:19;16.52;73.68
71039;SHT30;58692;43.212;27.908;2023-03-11T14:12:45;16.54;73.64
71039;SHT30;58692;43.212;27.908;2023-03-11T14:15:14;16.54;72.38
71039;SHT30;58692;43.212;27.908;2023-03-11T14:17:42;16.54;72.59
71039;SHT30;58692;43.212;27.908;2023-03-11T14:22:35;16.68;71.29
71039;SHT30;58692;43.212;27.908;2023-03-11T14:25:06;16.71;71.17
71039;SHT30;58692;43.212;27.908;2023-03-11T14:27:33;16.66;70.74
71039;SHT30;58692;43.212;27.908;2023-03-11T14:29:58;16.75;69.65
71039;SHT30;58692;43.212;27.908;2023-03-11T14:34:54;16.71;68.32
71039;SHT30;58692;43.212;27.908;2023-03-11T14:37:32;16.59;68.63
71039;SHT30;58692;43.212;27.908;2023-03-11T14:39:58;16.55;68.30
71039;SHT30;58692;43.212;27.908;2023-03-11T14:42:25;16.52;69.05
71039;SHT30;58692;43.212;27.908;2023-03-11T14:47:41;16.68;68.82
71039;SHT30;58692;43.212;27.908;2023-03-11T14:50:13;16.65;68.61
71039;SHT30;58692;43.212;27.908;2023-03-11T14:52:44;16.62;69.05
71039;SHT30;58692;43.212;27.908;2023-03-11T14:55:19;16.68;69.07
71039;SHT30;58692;43.212;27.908;2023-03-11T15:00:20;16.41;69.24
71039;SHT30;58692;43.212;27.908;2023-03-11T15:03:13;16.40;69.48
71039;SHT30;58692;43.212;27.908;2023-03-11T15:08:18;16.52;70.37
71039;SHT30;58692;43.212;27.908;2023-03-11T15:11:17;16.54;71.23
71039;SHT30;58692;43.212;27.908;2023-03-11T15:13:44;16.66;71.58
71039;SHT30;58692;43.212;27.908;2023-03-11T15:16:32;16.59;70.85
71039;SHT30;58692;43.212;27.908;2023-03-11T15:19:00;16.38;72.04
71039;SHT30;58692;43.212;27.908;2023-03-11T15:21:26;16.20;73.08
71039;SHT30;58692;43.212;27.908;2023-03-11T15:24:03;16.11;73.36
71039;SHT30;58692;43.212;27.908;2023-03-11T15:26:32;16.03;73.93
71039;SHT30;58692;43.212;27.908;2023-03-11T15:31:32;16.00;74.91
71039;SHT30;58692;43.212;27.908;2023-03-11T15:34:21;15.57;76.22
71039;SHT30;58692;43.212;27.908;2023-03-11T15:41:59;15.43;77.19
71039;SHT30;58692;43.212;27.908;2023-03-11T15:44:30;15.42;76.80
71039;SHT30;58692;43.212;27.908;2023-03-11T15:46:57;15.47;77.34
71039;SHT30;58692;43.212;27.908;2023-03-11T15:49:26;15.46;77.16
71039;SHT30;58692;43.212;27.908;2023-03-11T15:51:51;15.52;77.49
71039;SHT30;58692;43.212;27.908;2023-03-11T15:54:17;15.50;77.19
71039;SHT30;58692;43.212;27.908;2023-03-11T15:56:42;15.40;77.50
71039;SHT30;58692;43.212;27.908;2023-03-11T15:59:13;15.49;77.26
71039;SHT30;58692;43.212;27.908;2023-03-11T16:01:39;15.47;77.67
71039;SHT30;58692;43.212;27.908;2023-03-11T16:04:10;15.29;78.36
71039;SHT30;58692;43.212;27.908;2023-03-11T16:06:37;15.08;78.85
71039;SHT30;58692;43.212;27.908;2023-03-11T16:09:02;14.88;79.72
71039;SHT30;58692;43.212;27.908;2023-03-11T16:11:29;14.92;79.62
71039;SHT30;58692;43.212;27.908;2023-03-11T16:13:57;14.93;80.05
71039;SHT30;58692;43.212;27.908;2023-03-11T16:16:22;15.02;79.30
71039;SHT30;58692;43.212;27.908;2023-03-11T16:18:48;15.19;79.18
71039;SHT30;58692;43.212;27.908;2023-03-11T16:21:16;15.13;78.90
71039;SHT30;58692;43.212;27.908;2023-03-11T16:23:43;15.05;79.69
71039;SHT30;58692;43.212;27.908;2023-03-11T16:26:11;14.92;79.50
71039;SHT30;58692;43.212;27.908;2023-03-11T16:28:37;14.93;79.66
71039;SHT30;58692;43.212;27.908;2023-03-11T16:31:04;14.96;79.69
71039;SHT30;58692;43.212;27.908;2023-03-11T16:33:29;15.08;79.21
71039;SHT30;58692;43.212;27.908;2023-03-11T16:35:55;15.13;79.32
71039;SHT30;58692;43.212;27.908;2023-03-11T16:38:21;15.23;79.22
71039;SHT30;58692;43.212;27.908;2023-03-11T16:41:05;15.18;78.75
71039;SHT30;58692;43.212;27.908;2023-03-11T16:43:31;15.28;78.19
71039;SHT30;58692;43.212;27.908;2023-03-11T16:45:56;15.26;78.14
71039;SHT30;58692;43.212;27.908;2023-03-11T16:48:22;15.36;78.11
71039;SHT30;58692;43.212;27.908;2023-03-11T16:50:48;15.35;78.25